Adams Cove, New York
Current Conditions -  °F | °C
As of 3:10 PM on Thursday 30 Oct 2014 (Local Time) from KART Reporting Station
Overcast Overcast  
Wind Chill:   Ceiling: 2900
Heat Index:   Visibility: 10mi
Dew Point:   Wind: 8mph
Humidity: 58%   Direction: 270°W
Pressure: 30.02"   Gusts: NA
Location:  44.0116°N, 76.0789°W
Report Text: KART 301910Z AUTO 27007KT 10SM OVC029 08/00 A3002 RMK AO2 T00780000
Loading
Personal Weather Stations






























Interactive Weather Map
Tropical Storm Tracking
New forecast layout! Learn more

10-Day Weather Forecast

Advertisements
Track Severe Weather on mobile